Time;durP1;ratioP1;P1;durP2;ratioP2;P2;SDS_P1;SDS_P2;PMS_P1;PMS_P2;Temp;Humidity;BMP_temperature;BMP_pressure;BME280_temperature;BME280_humidity;BME280_pressure;Samples;Min_cycle;Max_cycle;Signal;HPM_P1;HPM_P2
2023/05/31 00:00:55;;;;;;;7.57;5.28;;;;;;;10.47;100.00;102560.28;5133541;27;20039;-56
2023/05/31 00:03:21;;;;;;;6.70;5.45;;;;;;;10.41;100.00;102556.78;5133124;27;20463;-56
2023/05/31 00:05:46;;;;;;;7.47;5.47;;;;;;;10.61;100.00;102600.56;5132949;27;20558;-56
2023/05/31 00:08:11;;;;;;;9.15;5.50;;;;;;;10.72;100.00;102616.31;5114851;27;20035;-55
2023/05/31 00:10:37;;;;;;;6.38;5.22;;;;;;;10.78;100.00;102631.19;5114390;27;20032;-54
2023/05/31 00:13:02;;;;;;;7.88;5.43;;;;;;;10.76;100.00;102632.97;5133235;27;20062;-53
2023/05/31 00:15:27;;;;;;;9.60;5.18;;;;;;;10.72;100.00;102627.72;5131561;28;20062;-54
2023/05/31 00:17:52;;;;;;;6.63;5.63;;;;;;;10.31;100.00;102560.31;5133162;28;20035;-57
2023/05/31 00:20:18;;;;;;;7.93;5.07;;;;;;;10.35;100.00;102599.81;5133244;28;20066;-56
2023/05/31 00:22:43;;;;;;;9.20;5.30;;;;;;;10.69;100.00;102626.84;5133356;28;20047;-57
2023/05/31 00:25:09;;;;;;;9.20;6.28;;;;;;;10.77;100.00;102630.31;5132792;28;20028;-54
2023/05/31 00:27:34;;;;;;;7.60;6.00;;;;;;;10.75;100.00;102629.47;5133114;28;20059;-56
2023/05/31 00:29:59;;;;;;;6.85;6.15;;;;;;;10.61;100.00;102611.09;5133092;28;20119;-56
2023/05/31 00:32:25;;;;;;;6.65;6.05;;;;;;;10.29;100.00;102554.19;5113439;28;20476;-54
2023/05/31 00:34:50;;;;;;;8.40;6.00;;;;;;;10.65;100.00;102617.25;5114709;28;20042;-55
2023/05/31 00:37:15;;;;;;;7.38;5.43;;;;;;;10.33;100.00;102562.09;5132811;28;20058;-55
2023/05/31 00:39:40;;;;;;;11.07;6.63;;;;;;;10.64;100.00;102623.38;5132846;28;20101;-55
2023/05/31 00:42:06;;;;;;;7.60;6.78;;;;;;;10.68;100.00;102620.72;5132785;28;20041;-54
2023/05/31 00:44:32;;;;;;;8.95;6.25;;;;;;;10.29;100.00;102552.44;5132932;28;20038;-56
2023/05/31 00:46:57;;;;;;;9.45;6.25;;;;;;;10.65;100.00;102623.34;5132892;28;20110;-55
2023/05/31 00:49:23;;;;;;;8.30;6.25;;;;;;;10.56;100.00;102612.88;5131820;28;20040;-53
2023/05/31 00:51:48;;;;;;;9.48;6.50;;;;;;;10.63;100.00;102630.41;5132777;28;20074;-55
2023/05/31 00:54:13;;;;;;;8.48;6.60;;;;;;;10.64;100.00;102629.53;5097869;28;20039;-56
2023/05/31 00:56:39;;;;;;;8.38;6.28;;;;;;;10.62;100.00;102633.91;5132355;28;20059;-56
2023/05/31 00:59:05;;;;;;;7.03;5.60;;;;;;;10.57;100.00;102619.88;5114507;28;20035;-56
2023/05/31 01:01:32;;;;;;;11.13;6.65;;;;;;;10.65;100.00;102627.78;5114746;28;20059;-53
2023/05/31 01:03:59;;;;;;;7.50;6.70;;;;;;;10.65;100.00;102633.88;5131346;28;20596;-57
2023/05/31 01:06:24;;;;;;;11.38;7.47;;;;;;;10.62;100.00;102623.38;5132883;28;20035;-55
2023/05/31 01:08:50;;;;;;;9.30;6.70;;;;;;;10.21;100.00;102554.25;5132513;28;20046;-56
2023/05/31 01:11:21;;;;;;;10.18;6.90;;;;;;;10.64;100.00;102619.00;5117931;27;20359;-55
2023/05/31 01:14:03;;;;;;;9.45;6.82;;;;;;;10.64;100.00;102632.16;5136646;27;20039;-55
2023/05/31 01:16:35;;;;;;;8.70;7.15;;;;;;;10.39;100.00;102580.47;5136324;27;20437;-53
2023/05/31 01:19:05;;;;;;;9.40;6.78;;;;;;;10.62;100.00;102623.38;5118305;27;20062;-55
2023/05/31 01:21:43;;;;;;;9.65;7.13;;;;;;;10.43;100.00;102591.88;5104471;28;20390;-55
2023/05/31 01:24:24;;;;;;;8.60;6.57;;;;;;;10.25;100.00;102560.34;5114456;28;20038;-56
2023/05/31 01:26:50;;;;;;;11.07;7.22;;;;;;;10.58;100.00;102611.13;5097782;28;20055;-57
2023/05/31 01:29:20;;;;;;;9.40;6.43;;;;;;;10.16;100.00;102555.97;5114272;28;20066;-56
2023/05/31 01:31:47;;;;;;;9.35;7.43;;;;;;;10.11;100.00;102541.94;5115326;28;20107;-53
2023/05/31 01:34:12;;;;;;;7.72;6.60;;;;;;;10.50;100.00;102609.41;5097239;28;20035;-53
2023/05/31 01:36:38;;;;;;;9.00;7.18;;;;;;;10.06;100.00;102541.97;5109370;27;20043;-56
2023/05/31 01:39:03;;;;;;;7.38;6.38;;;;;;;10.52;100.00;102623.41;5136171;27;20035;-51
2023/05/31 01:41:31;;;;;;;12.65;7.68;;;;;;;10.47;100.00;102631.34;5117527;27;20035;-57
2023/05/31 01:43:57;;;;;;;7.82;6.15;;;;;;;9.92;100.00;102535.88;5117281;27;20306;-55
2023/05/31 01:46:23;;;;;;;10.90;7.72;;;;;;;10.09;100.00;102572.66;5116960;27;20401;-54
2023/05/31 01:48:49;;;;;;;9.50;6.93;;;;;;;9.95;100.00;102553.41;5117223;27;20027;-53
2023/05/31 01:51:15;;;;;;;11.88;7.32;;;;;;;10.32;100.00;102626.13;5116540;27;20382;-53
2023/05/31 01:53:41;;;;;;;13.20;7.72;;;;;;;9.93;100.00;102555.16;5116521;27;20042;-56
2023/05/31 01:56:08;;;;;;;8.95;6.85;;;;;;;10.22;100.00;102608.59;5135248;27;20043;-57
2023/05/31 01:58:36;;;;;;;10.13;7.45;;;;;;;9.91;100.00;102557.78;5117433;27;20027;-56
2023/05/31 02:01:01;;;;;;;8.23;6.78;;;;;;;10.28;100.00;102624.38;5117057;27;20489;-55
2023/05/31 02:03:27;;;;;;;9.30;6.55;;;;;;;10.25;100.00;102626.13;5135210;27;20867;-55
2023/05/31 02:05:56;;;;;;;10.25;6.45;;;;;;;9.84;100.00;102558.69;5117540;27;20046;-55
2023/05/31 02:08:23;;;;;;;11.93;7.43;;;;;;;10.19;100.00;102607.75;5134458;27;20031;-54
2023/05/31 02:10:48;;;;;;;11.95;6.55;;;;;;;9.83;100.00;102543.78;5135523;27;20098;-54
2023/05/31 02:13:14;;;;;;;9.07;6.80;;;;;;;9.84;100.00;102545.53;5135388;27;20088;-55
2023/05/31 02:15:41;;;;;;;7.95;6.22;;;;;;;10.19;100.00;102619.13;5135288;27;20066;-55
2023/05/31 02:18:07;;;;;;;9.20;6.90;;;;;;;9.76;100.00;102549.06;5135267;27;20470;-57
2023/05/31 02:20:33;;;;;;;8.98;6.85;;;;;;;9.77;100.00;102546.44;5135128;27;20031;-57
2023/05/31 02:22:59;;;;;;;9.13;6.32;;;;;;;9.77;100.00;102542.94;5134799;27;20039;-55
2023/05/31 02:25:24;;;;;;;10.65;6.45;;;;;;;10.18;100.00;102622.66;5115347;27;20482;-58
2023/05/31 02:27:49;;;;;;;8.65;6.18;;;;;;;10.10;100.00;102612.09;5135200;27;20031;-57
2023/05/31 02:30:15;;;;;;;8.00;6.60;;;;;;;10.16;100.00;102621.78;5134813;27;20032;-58
2023/05/31 02:32:41;;;;;;;8.52;6.47;;;;;;;10.06;100.00;102605.13;5135240;27;20091;-55
2023/05/31 02:35:08;;;;;;;12.02;7.20;;;;;;;9.65;100.00;102535.94;5135124;27;20031;-56
2023/05/31 02:37:34;;;;;;;10.00;6.93;;;;;;;10.08;100.00;102613.88;5134638;27;20390;-53
2023/05/31 02:39:59;;;;;;;9.60;7.05;;;;;;;9.66;100.00;102540.28;5116420;27;20031;-55
2023/05/31 02:42:25;;;;;;;10.68;6.38;;;;;;;10.01;100.00;102608.63;5133579;27;20431;-54
2023/05/31 02:44:50;;;;;;;10.57;6.45;;;;;;;9.55;100.00;102545.59;5134686;27;20038;-57
2023/05/31 02:47:16;;;;;;;9.82;6.28;;;;;;;9.70;100.00;102572.72;5134691;27;20237;-55
2023/05/31 02:49:42;;;;;;;10.05;6.72;;;;;;;9.91;100.00;102610.41;5134898;27;20126;-51
2023/05/31 02:52:07;;;;;;;9.10;6.95;;;;;;;9.41;100.00;102531.56;5131141;27;20049;-51
2023/05/31 02:54:32;;;;;;;11.13;7.05;;;;;;;9.21;100.00;102501.81;5134406;27;20042;-55
2023/05/31 02:56:59;;;;;;;9.82;6.80;;;;;;;9.83;100.00;102611.28;5115905;27;20142;-52
2023/05/31 02:59:24;;;;;;;10.68;6.45;;;;;;;9.81;100.00;102613.03;5134345;27;20110;-56
2023/05/31 03:01:50;;;;;;;9.32;7.03;;;;;;;9.76;100.00;102607.78;5134341;27;20587;-55
2023/05/31 03:04:15;;;;;;;9.10;6.90;;;;;;;9.35;100.00;102547.34;5134541;27;20530;-52
2023/05/31 03:06:41;;;;;;;10.50;6.78;;;;;;;9.66;100.00;102608.66;5134228;27;20389;-54
2023/05/31 03:09:07;;;;;;;10.23;7.57;;;;;;;9.25;100.00;102531.59;5115257;27;20470;-50
2023/05/31 03:11:32;;;;;;;10.90;7.57;;;;;;;9.27;100.00;102535.97;5134213;27;20046;-51
2023/05/31 03:13:58;;;;;;;8.90;6.88;;;;;;;9.65;100.00;102603.41;5115691;27;20390;-54
2023/05/31 03:16:24;;;;;;;10.30;7.13;;;;;;;9.68;100.00;102606.94;5133983;27;20034;-54
2023/05/31 03:18:50;;;;;;;13.32;8.40;;;;;;;9.60;100.00;102603.44;5134258;27;20038;-55
2023/05/31 03:21:16;;;;;;;12.43;7.85;;;;;;;9.11;100.00;102518.44;5134392;27;20031;-56
2023/05/31 03:23:41;;;;;;;10.27;7.25;;;;;;;9.65;100.00;102613.94;5115642;27;20497;-54
2023/05/31 03:26:06;;;;;;;12.07;7.60;;;;;;;9.63;100.00;102610.44;5132766;27;20157;-54
2023/05/31 03:28:32;;;;;;;10.15;7.15;;;;;;;9.27;100.00;102543.84;5115266;27;20077;-57
2023/05/31 03:30:57;;;;;;;10.85;7.15;;;;;;;8.81;100.00;102469.44;5133784;27;20031;-56
2023/05/31 03:33:23;;;;;;;12.60;8.73;;;;;;;9.16;100.00;102523.72;5132895;27;20126;-55
2023/05/31 03:35:48;;;;;;;10.65;7.68;;;;;;;9.49;100.00;102587.63;5133838;27;20088;-53
2023/05/31 03:38:14;;;;;;;10.77;7.32;;;;;;;9.47;100.00;102573.63;5133193;27;20541;-56
2023/05/31 03:40:39;;;;;;;12.35;7.75;;;;;;;9.56;100.00;102589.41;5132493;27;20050;-56
2023/05/31 03:43:04;;;;;;;9.88;6.80;;;;;;;9.47;100.00;102572.75;5117583;27;20042;-57
2023/05/31 03:45:30;;;;;;;15.30;8.13;;;;;;;9.53;100.00;102599.91;5115300;27;20183;-56
2023/05/31 03:47:55;;;;;;;12.70;7.25;;;;;;;9.57;100.00;102603.44;5114635;27;20046;-55
2023/05/31 03:50:20;;;;;;;12.13;7.22;;;;;;;9.56;100.00;102607.81;5097797;27;20496;-55
2023/05/31 03:52:46;;;;;;;10.75;7.88;;;;;;;9.56;100.00;102612.19;5128115;27;20039;-55
2023/05/31 03:55:11;;;;;;;11.90;7.70;;;;;;;9.57;100.00;102611.31;5094728;28;20050;-55
2023/05/31 03:57:36;;;;;;;12.20;7.88;;;;;;;9.58;100.00;102608.66;5127024;27;20410;-57
2023/05/31 04:00:02;;;;;;;9.75;6.80;;;;;;;8.26;100.00;102376.56;5122668;27;20051;-53
2023/05/31 04:02:28;;;;;;;10.38;7.50;;;;;;;9.63;100.00;102606.06;5114789;27;20039;-55
2023/05/31 04:04:53;;;;;;;11.07;8.15;;;;;;;9.68;100.00;102619.19;5133297;27;20035;-54
2023/05/31 04:07:19;;;;;;;10.70;6.93;;;;;;;9.51;100.00;102585.91;5129933;27;20043;-58
2023/05/31 04:09:44;;;;;;;11.85;8.07;;;;;;;9.68;100.00;102612.19;5112006;28;20088;-53
2023/05/31 04:12:10;;;;;;;10.35;7.35;;;;;;;9.69;100.00;102611.28;5094465;28;20036;-55
2023/05/31 04:14:35;;;;;;;11.10;7.88;;;;;;;9.30;100.00;102546.47;5093775;28;20521;-56
2023/05/31 04:17:00;;;;;;;12.93;8.65;;;;;;;9.72;100.00;102605.19;5093342;28;20398;-55
2023/05/31 04:19:26;;;;;;;9.85;7.35;;;;;;;9.76;100.00;102612.16;5131258;28;20113;-56
2023/05/31 04:21:51;;;;;;;10.13;8.07;;;;;;;9.40;100.00;102542.06;5132819;28;20035;-55
2023/05/31 04:24:16;;;;;;;11.20;7.60;;;;;;;9.85;100.00;102618.31;5133026;28;20488;-56
2023/05/31 04:26:42;;;;;;;12.10;7.75;;;;;;;9.63;100.00;102566.63;5133507;28;20035;-56
2023/05/31 04:29:07;;;;;;;16.52;8.48;;;;;;;9.52;100.00;102540.31;5131445;28;20466;-55
2023/05/31 04:31:36;;;;;;;12.10;8.88;;;;;;;10.01;100.00;102627.06;5102938;28;20050;-55
2023/05/31 04:34:03;;;;;;;14.45;8.57;;;;;;;10.02;100.00;102623.53;5094405;28;20032;-53
2023/05/31 04:36:32;;;;;;;11.93;8.80;;;;;;;9.75;100.00;102561.31;5083999;28;20088;-54
2023/05/31 04:38:58;;;;;;;12.50;9.25;;;;;;;10.12;100.00;102613.00;5127735;28;20036;-52
2023/05/31 04:41:26;;;;;;;13.93;8.93;;;;;;;9.87;100.00;102561.31;5132847;28;20042;-54
2023/05/31 04:43:53;;;;;;;11.20;8.07;;;;;;;10.24;100.00;102630.53;5132781;28;20446;-56
2023/05/31 04:46:19;;;;;;;14.68;8.43;;;;;;;10.20;100.00;102615.63;5136663;27;20247;-55
2023/05/31 04:48:47;;;;;;;12.23;8.93;;;;;;;10.04;100.00;102570.03;5123433;27;20059;-56
2023/05/31 04:51:13;;;;;;;11.85;8.45;;;;;;;10.42;100.00;102621.72;5098069;28;20371;-54
2023/05/31 04:53:38;;;;;;;12.02;8.75;;;;;;;10.34;100.00;102613.81;5116073;28;20031;-54
2023/05/31 04:56:06;;;;;;;13.45;9.35;;;;;;;10.07;100.00;102537.56;5115739;28;20085;-53
2023/05/31 04:58:32;;;;;;;11.63;8.98;;;;;;;10.56;100.00;102618.16;5127033;27;20481;-54
2023/05/31 05:00:59;;;;;;;15.60;9.40;;;;;;;10.61;100.00;102615.50;5130672;27;20043;-54
2023/05/31 05:03:25;;;;;;;14.57;9.70;;;;;;;10.66;100.00;102611.94;5133459;27;20375;-56
2023/05/31 05:05:51;;;;;;;14.90;9.43;;;;;;;10.76;100.00;102617.19;5134254;27;20145;-55
2023/05/31 05:08:17;;;;;;;12.48;9.35;;;;;;;10.82;100.00;102614.50;5118334;27;20039;-54
2023/05/31 05:10:43;;;;;;;14.73;9.52;;;;;;;10.91;100.00;102617.09;5135953;27;20027;-52
2023/05/31 05:13:08;;;;;;;12.27;9.45;;;;;;;11.00;100.00;102614.41;5116299;27;20367;-55
2023/05/31 05:15:33;;;;;;;16.33;9.52;;;;;;;10.79;100.00;102565.34;5119186;27;20052;-54
2023/05/31 05:17:59;;;;;;;15.88;9.75;;;;;;;11.02;100.00;102595.06;5117354;27;20389;-56
2023/05/31 05:20:24;;;;;;;11.50;9.18;;;;;;;11.28;100.00;102608.94;5136464;27;20127;-55
2023/05/31 05:22:51;;;;;;;14.88;8.93;;;;;;;11.08;100.00;102555.50;5099394;27;20035;-56
2023/05/31 05:25:17;;;;;;;16.80;9.60;;;;;;;11.13;100.00;102551.06;5136642;27;20043;-51
2023/05/31 05:27:42;;;;;;;16.27;9.65;;;;;;;11.22;100.00;102543.09;5136165;27;20120;-52
2023/05/31 05:30:07;;;;;;;12.73;8.80;;;;;;;11.75;100.00;102621.78;5136190;27;20034;-56
2023/05/31 05:32:33;;;;;;;12.63;9.32;;;;;;;11.91;100.00;102616.38;5134947;27;20035;-54
2023/05/31 05:34:58;;;;;;;12.55;9.07;;;;;;;12.04;100.00;102621.50;5134344;27;20390;-54
2023/05/31 05:37:23;;;;;;;13.90;9.75;;;;;;;12.05;100.00;102617.09;5136045;27;20095;-54
2023/05/31 05:39:49;;;;;;;11.98;8.85;;;;;;;12.25;100.00;102625.69;5135818;27;20470;-54
2023/05/31 05:42:14;;;;;;;10.98;8.90;;;;;;;12.37;100.00;102621.13;5134931;27;20474;-55
2023/05/31 05:44:40;;;;;;;13.75;8.80;;;;;;;12.34;100.00;102607.09;5135836;27;20386;-57
2023/05/31 05:47:05;;;;;;;13.80;9.23;;;;;;;12.09;100.00;102548.41;5134062;27;20424;-54
2023/05/31 05:49:30;;;;;;;17.13;10.25;;;;;;;12.37;100.00;102588.56;5135672;27;20037;-50
2023/05/31 05:51:56;;;;;;;15.35;9.65;;;;;;;12.72;100.00;102625.13;5134317;27;20027;-55
2023/05/31 05:54:21;;;;;;;14.15;9.93;;;;;;;12.80;100.00;102637.34;5117013;27;20041;-56
2023/05/31 05:56:46;;;;;;;19.95;9.85;;;;;;;12.84;100.00;102633.72;5103204;28;20058;-57
2023/05/31 05:59:12;;;;;;;12.85;9.32;;;;;;;12.98;100.00;102628.28;5094934;28;20072;-58
2023/05/31 06:01:37;;;;;;;17.63;10.02;;;;;;;13.03;100.00;102625.56;5094974;28;20399;-55
2023/05/31 06:04:02;;;;;;;13.68;10.05;;;;;;;12.95;100.00;102600.13;5094508;28;20032;-53
2023/05/31 06:06:28;;;;;;;12.70;9.90;;;;;;;13.03;100.00;102601.78;5105092;28;20047;-55
2023/05/31 06:08:53;;;;;;;11.73;9.35;;;;;;;13.28;100.00;102632.28;5099826;28;20040;-52
2023/05/31 06:11:19;;;;;;;12.50;10.35;;;;;;;13.25;100.00;102625.25;5094400;28;20027;-53
2023/05/31 06:13:45;;;;;;;12.55;9.57;;;;;;;13.32;100.00;102618.09;5093436;28;20039;-53
2023/05/31 06:16:13;;;;;;;14.80;10.90;;;;;;;13.58;100.00;102641.50;5093017;28;20399;-57
2023/05/31 06:18:38;;;;;;;12.43;9.77;;;;;;;13.36;100.00;102577.50;5112317;28;20043;-53
2023/05/31 06:21:04;;;;;;;12.45;9.98;;;;;;;13.41;100.00;102586.22;5114774;28;20367;-58
2023/05/31 06:23:29;;;;;;;12.13;10.48;;;;;;;13.86;100.00;102642.81;5114366;28;20035;-54
2023/05/31 06:25:54;;;;;;;14.02;9.90;;;;;;;13.62;100.00;102569.13;5113309;28;20046;-54
2023/05/31 06:28:20;;;;;;;14.60;10.40;;;;;;;14.07;100.00;102653.88;5112381;28;20063;-54
2023/05/31 06:30:45;;;;;;;15.68;11.35;;;;;;;14.14;100.00;102664.34;5114467;28;20028;-54
2023/05/31 06:33:11;;;;;;;13.50;10.13;;;;;;;13.89;100.00;102589.81;5114491;28;20036;-56
2023/05/31 06:35:37;;;;;;;14.98;10.15;;;;;;;14.40;100.00;102656.81;5111664;28;20058;-52
2023/05/31 06:38:05;;;;;;;13.25;9.77;;;;;;;14.41;100.00;102663.88;5112915;28;20040;-51
2023/05/31 06:40:30;;;;;;;14.90;10.40;;;;;;;14.23;100.00;102624.44;5114625;28;20036;-52
2023/05/31 06:42:56;;;;;;;13.02;10.05;;;;;;;14.03;100.00;102609.81;5114081;28;20038;-53
2023/05/31 06:45:21;;;;;;;13.25;9.75;;;;;;;14.46;100.00;102651.41;5102149;28;20035;-53
2023/05/31 06:47:47;;;;;;;11.98;9.82;;;;;;;14.55;100.00;102654.75;5101840;27;20087;-54
2023/05/31 06:50:12;;;;;;;13.15;9.52;;;;;;;14.67;100.00;102642.16;5091857;28;20067;-55
2023/05/31 06:52:39;;;;;;;14.23;9.60;;;;;;;14.39;100.00;102589.72;5098946;28;20070;-54
2023/05/31 06:55:04;;;;;;;14.05;10.38;;;;;;;14.82;100.00;102641.81;5102572;28;20043;-54
2023/05/31 06:57:29;;;;;;;12.60;9.70;;;;;;;14.91;100.00;102652.25;5115546;27;20043;-52
2023/05/31 06:59:55;;;;;;;14.38;10.25;;;;;;;14.38;100.00;102520.88;5095597;28;20035;-54
2023/05/31 07:02:20;;;;;;;14.68;10.43;;;;;;;15.23;100.00;102651.53;5127266;27;20057;-51
2023/05/31 07:04:45;;;;;;;14.30;10.10;;;;;;;15.13;100.00;102598.69;5107668;27;20554;-55
2023/05/31 07:07:11;;;;;;;15.18;10.10;;;;;;;15.52;100.00;102639.34;5131560;27;20393;-54
2023/05/31 07:09:36;;;;;;;12.25;9.85;;;;;;;15.46;100.00;102597.00;5129383;27;20591;-54
2023/05/31 07:12:02;;;;;;;14.43;9.85;;;;;;;15.74;100.00;102639.66;5115126;27;20043;-56
2023/05/31 07:14:28;;;;;;;14.82;9.52;;;;;;;15.69;100.00;102602.63;5129268;27;20039;-54
2023/05/31 07:16:53;;;;;;;12.70;10.00;;;;;;;15.97;100.00;102661.19;5116425;27;20043;-55
2023/05/31 07:19:19;;;;;;;12.43;8.95;;;;;;;16.17;100.00;102658.03;5112241;27;20043;-53
2023/05/31 07:21:44;;;;;;;13.32;9.35;;;;;;;15.66;100.00;102564.66;5125625;27;20027;-56
2023/05/31 07:24:10;;;;;;;13.05;9.55;;;;;;;16.23;100.00;102657.84;5093592;28;20053;-54
2023/05/31 07:26:35;;;;;;;13.68;8.88;;;;;;;16.42;100.00;102655.56;5124964;27;20389;-55
2023/05/31 07:29:00;;;;;;;12.95;8.43;;;;;;;16.03;100.00;102594.63;5132604;27;20035;-54
2023/05/31 07:31:26;;;;;;;13.10;9.45;;;;;;;16.58;100.00;102635.66;5132253;27;20027;-54
2023/05/31 07:33:51;;;;;;;11.75;8.05;;;;;;;17.03;100.00;102652.91;5126450;27;20040;-57
2023/05/31 07:36:18;;;;;;;12.63;8.10;;;;;;;17.45;100.00;102642.69;5112114;27;20036;-56
2023/05/31 07:38:43;;;;;;;12.00;8.70;;;;;;;17.21;100.00;102623.06;5107041;27;20035;-53
2023/05/31 07:41:09;;;;;;;13.10;8.65;;;;;;;17.62;100.00;102652.81;5132280;27;20027;-50
2023/05/31 07:43:34;;;;;;;11.00;8.07;;;;;;;17.52;100.00;102601.63;5113441;27;20439;-56
2023/05/31 07:46:00;;;;;;;12.10;8.02;;;;;;;18.19;100.00;102661.50;5132055;27;20039;-51
2023/05/31 07:48:25;;;;;;;13.40;8.48;;;;;;;18.15;100.00;102651.00;5112804;27;20034;-56
2023/05/31 07:50:51;;;;;;;11.10;7.40;;;;;;;18.37;100.00;102660.84;5128500;27;20051;-55
2023/05/31 07:53:16;;;;;;;11.85;7.15;;;;;;;18.55;100.00;102694.00;5094193;28;20089;-52
2023/05/31 07:55:43;;;;;;;9.70;7.45;;;;;;;18.40;100.00;102626.06;5092021;28;20032;-56
2023/05/31 07:58:12;;;;;;;11.05;7.18;;;;;;;19.17;100.00;102632.94;5109025;27;20082;-53
2023/05/31 08:00:38;;;;;;;9.40;7.47;;;;;;;19.61;100.00;102692.59;5113761;27;20031;-54
2023/05/31 08:03:05;;;;;;;11.57;7.40;;;;;;;19.03;100.00;102641.44;5131504;27;20070;-53
2023/05/31 08:05:30;;;;;;;10.20;7.50;;;;;;;19.26;100.00;102690.41;5131485;27;20049;-52
2023/05/31 08:07:56;;;;;;;8.65;6.78;;;;;;;20.01;100.00;102697.13;5124369;27;20028;-56
2023/05/31 08:10:21;;;;;;;10.63;7.00;;;;;;;20.09;100.00;102695.00;5110471;28;20109;-56
2023/05/31 08:12:47;;;;;;;9.95;7.15;;;;;;;19.85;100.00;102638.09;5117755;27;20364;-53
2023/05/31 08:15:12;;;;;;;11.27;7.93;;;;;;;19.89;100.00;102628.16;5126175;27;20071;-55
2023/05/31 08:17:38;;;;;;;10.80;7.78;;;;;;;20.23;100.00;102689.09;5106775;28;20406;-54
2023/05/31 08:20:06;;;;;;;10.13;6.40;;;;;;;20.25;100.00;102682.75;5113047;28;20389;-56
2023/05/31 08:22:31;;;;;;;10.65;7.22;;;;;;;20.07;100.00;102641.63;5131693;28;20039;-56
2023/05/31 08:24:57;;;;;;;11.80;7.10;;;;;;;20.62;100.00;102688.22;5124256;28;20088;-56
2023/05/31 08:27:23;;;;;;;11.27;6.57;;;;;;;20.99;100.00;102686.50;5114064;28;21023;-56
2023/05/31 08:29:48;;;;;;;8.55;6.30;;;;;;;20.84;100.00;102681.88;5131679;28;20034;-56
2023/05/31 08:32:14;;;;;;;10.23;7.13;;;;;;;20.31;100.00;102679.81;5127209;28;20039;-56
2023/05/31 08:34:39;;;;;;;10.75;6.80;;;;;;;20.88;100.00;102678.97;5121800;28;20039;-55
2023/05/31 08:37:05;;;;;;;11.32;6.22;;;;;;;21.46;100.00;102676.22;5114709;28;20043;-56
2023/05/31 08:39:30;;;;;;;7.93;5.75;;;;;;;21.63;100.00;102666.41;5115004;28;20044;-56
2023/05/31 08:42:04;;;;;;;10.77;6.07;;;;;;;21.27;100.00;102614.66;5092133;28;20048;-57
2023/05/31 08:44:30;;;;;;;10.73;5.72;;;;;;;22.39;100.00;102665.19;5092962;28;20397;-56
2023/05/31 08:46:58;;;;;;;10.45;6.18;;;;;;;22.36;100.00;102614.38;5111147;28;20044;-56
2023/05/31 08:49:24;;;;;;;10.07;7.00;;;;;;;22.56;100.00;102667.00;5092198;28;20118;-56
2023/05/31 08:51:49;;;;;;;7.85;7.03;;;;;;;21.67;100.00;102619.78;5109683;28;20533;-57
2023/05/31 08:54:16;;;;;;;13.38;6.75;;;;;;;21.67;100.00;102665.34;5096057;28;20027;-52
2023/05/31 08:56:43;;;;;;;10.05;7.15;;;;;;;21.50;100.00;102632.28;5121550;28;20101;-56
2023/05/31 08:59:11;;;;;;;11.52;6.20;;;;;;;21.41;100.00;102611.31;5104681;28;20100;-57
2023/05/31 09:01:37;;;;;;;10.27;6.05;;;;;;;22.22;100.00;102654.50;5129740;28;20067;-53
2023/05/31 09:04:06;;;;;;;13.48;7.25;;;;;;;22.64;100.00;102612.00;5111978;28;20031;-57
2023/05/31 09:06:32;;;;;;;9.00;6.03;;;;;;;23.44;100.00;102655.78;5131211;28;20039;-55
2023/05/31 09:08:59;;;;;;;12.20;6.93;;;;;;;23.29;100.00;102661.16;5113011;28;20031;-57
2023/05/31 09:11:25;;;;;;;9.80;6.60;;;;;;;22.49;100.00;102607.41;5131557;28;20046;-53
2023/05/31 09:13:51;;;;;;;10.73;6.47;;;;;;;22.71;100.00;102602.63;5111751;28;20046;-54
2023/05/31 09:16:16;;;;;;;11.60;6.80;;;;;;;22.37;100.00;102649.19;5110803;28;20390;-56
2023/05/31 09:18:42;;;;;;;8.80;7.10;;;;;;;22.56;100.00;102621.38;5112120;28;20039;-56
2023/05/31 09:21:11;;;;;;;8.85;7.78;;;;;;;22.43;100.00;102546.03;5121657;28;20399;-54
2023/05/31 09:23:37;;;;;;;10.40;6.85;;;;;;;22.47;100.00;102595.91;5109082;28;20103;-54
2023/05/31 09:26:06;;;;;;;8.68;6.55;;;;;;;22.45;100.00;102654.13;5109344;28;20439;-54
2023/05/31 09:28:31;;;;;;;9.90;6.60;;;;;;;22.55;100.00;102599.03;5124313;28;20037;-52
2023/05/31 09:31:07;;;;;;;9.27;5.85;;;;;;;22.34;100.00;102601.06;5130524;27;20031;-55
2023/05/31 09:33:41;;;;;;;7.97;6.78;;;;;;;22.01;100.00;102655.63;5134451;27;20079;-54
2023/05/31 09:36:07;;;;;;;10.95;6.53;;;;;;;21.84;100.00;102587.59;5116433;27;20031;-53
2023/05/31 09:38:35;;;;;;;9.88;6.72;;;;;;;22.79;100.00;102632.63;5134670;27;20034;-56
2023/05/31 09:41:20;;;;;;;9.32;6.88;;;;;;;22.62;100.00;102648.72;5134681;27;20035;-54
2023/05/31 09:43:49;;;;;;;8.85;6.65;;;;;;;23.11;100.00;102627.25;5133091;27;20476;-54
2023/05/31 09:46:20;;;;;;;14.98;7.28;;;;;;;23.10;100.00;102630.88;5116259;27;20046;-54
2023/05/31 09:48:57;;;;;;;9.55;6.20;;;;;;;23.33;100.00;102577.56;5116335;27;20393;-52
2023/05/31 09:51:22;;;;;;;8.90;6.70;;;;;;;23.57;100.00;102587.88;5134300;27;20169;-54
2023/05/31 09:53:51;;;;;;;7.63;6.60;;;;;;;23.47;100.00;102626.03;5134132;27;20110;-52
2023/05/31 09:56:18;;;;;;;10.70;6.53;;;;;;;24.31;100.00;102629.97;5133871;27;20063;-53
2023/05/31 09:58:44;;;;;;;5.57;4.97;;;;;;;24.36;100.00;102644.00;5134122;27;20168;-55
2023/05/31 10:01:09;;;;;;;7.55;5.32;;;;;;;24.33;100.00;102628.03;5120739;27;20452;-53
2023/05/31 10:03:36;;;;;;;12.70;5.18;;;;;;;24.55;100.00;102652.66;5113645;28;20542;-51
2023/05/31 10:06:02;;;;;;;7.80;4.95;;;;;;;24.46;100.00;102574.31;5095872;28;20035;-56
2023/05/31 10:08:28;;;;;;;6.78;4.25;;;;;;;24.84;100.00;102531.50;5113809;28;20036;-55
2023/05/31 10:10:54;;;;;;;8.18;5.35;;;;;;;25.46;100.00;102583.88;5113396;28;20043;-55
2023/05/31 10:13:20;;;;;;;8.98;4.70;;;;;;;24.37;100.00;102580.28;5094967;28;20775;-57
2023/05/31 10:15:49;;;;;;;7.63;5.38;;;;;;;24.51;100.00;102582.97;5095028;28;20120;-54
2023/05/31 10:18:16;;;;;;;13.35;6.28;;;;;;;24.33;100.00;102608.31;5124500;27;20050;-57
2023/05/31 10:20:53;;;;;;;12.55;6.72;;;;;;;24.72;100.00;102592.38;5115461;27;20056;-52
2023/05/31 10:23:22;;;;;;;8.73;6.25;;;;;;;24.68;100.00;102619.56;5098354;27;20393;-52
2023/05/31 10:26:13;;;;;;;7.43;5.50;;;;;;;24.84;100.00;102620.38;5133822;27;20295;-52
2023/05/31 10:29:04;;;;;;;12.15;6.90;;;;;;;25.00;100.00;102619.28;5113545;27;20053;-50
2023/05/31 10:31:35;;;;;;;10.13;6.75;;;;;;;25.19;100.00;102622.47;5113157;28;20023;-53
2023/05/31 10:34:28;;;;;;;9.48;6.10;;;;;;;25.83;100.00;102603.88;5113469;28;20035;-54
2023/05/31 10:36:54;;;;;;;9.38;6.25;;;;;;;25.81;100.00;102601.25;5094421;28;20445;-54
2023/05/31 10:39:30;;;;;;;8.40;6.03;;;;;;;25.77;100.00;102625.88;5094634;28;20572;-51
2023/05/31 10:42:21;;;;;;;7.82;4.72;;;;;;;25.72;100.00;102612.66;5094667;28;20492;-51
2023/05/31 10:44:53;;;;;;;6.90;4.60;;;;;;;25.03;100.00;102558.94;5097846;28;20458;-51
2023/05/31 10:47:24;;;;;;;8.50;5.05;;;;;;;25.16;100.00;102593.03;5094442;28;20527;-53
2023/05/31 10:49:52;;;;;;;8.77;5.00;;;;;;;25.13;100.00;102601.31;5107470;27;20060;-52
2023/05/31 10:52:17;;;;;;;11.27;5.07;;;;;;;25.51;100.00;102601.50;5133112;27;20023;-52
2023/05/31 10:54:42;;;;;;;6.78;4.78;;;;;;;25.18;100.00;102596.53;5132901;27;20039;-52
2023/05/31 10:57:10;;;;;;;10.63;5.30;;;;;;;25.54;100.00;102603.16;5133053;27;20134;-55
2023/05/31 10:59:42;;;;;;;8.23;5.32;;;;;;;25.42;100.00;102545.50;5132856;27;20637;-53
2023/05/31 11:02:09;;;;;;;11.30;5.97;;;;;;;25.35;100.00;102572.94;5114717;27;20023;-53
2023/05/31 11:04:34;;;;;;;8.05;4.72;;;;;;;25.77;100.00;102597.06;5114384;27;20043;-53
2023/05/31 11:07:14;;;;;;;9.90;4.78;;;;;;;25.89;100.00;102514.41;5114382;27;20027;-52
2023/05/31 11:09:42;;;;;;;6.27;4.80;;;;;;;25.83;100.00;102599.34;5133054;27;20042;-52
2023/05/31 11:12:07;;;;;;;12.02;5.53;;;;;;;25.88;100.00;102588.22;5114342;27;20035;-54